createdAt,value
2023-02-08T00:01:03.479Z,66
2023-02-08T00:02:10.622Z,66
2023-02-08T00:03:17.299Z,66
2023-02-08T00:05:31.471Z,66
2023-02-08T00:06:38.558Z,66
2023-02-08T00:07:45.633Z,66
2023-02-08T00:08:52.247Z,66
2023-02-08T00:09:59.429Z,66
2023-02-08T00:11:06.430Z,66
2023-02-08T00:12:13.501Z,66
2023-02-08T00:13:20.647Z,66
2023-02-08T00:14:27.236Z,66
2023-02-08T00:15:34.463Z,66
2023-02-08T00:16:41.582Z,66
2023-02-08T00:17:48.532Z,66
2023-02-08T00:18:55.622Z,66
2023-02-08T00:20:02.222Z,66
2023-02-08T00:21:09.411Z,66
2023-02-08T00:22:16.430Z,66
2023-02-08T00:23:23.553Z,66
2023-02-08T00:24:30.686Z,66
2023-02-08T00:25:37.288Z,66
2023-02-08T00:26:44.372Z,66
2023-02-08T00:27:51.523Z,66
2023-02-08T00:28:58.543Z,67
2023-02-08T00:30:05.674Z,67
2023-02-08T00:31:12.349Z,67
2023-02-08T00:32:19.340Z,67
2023-02-08T00:33:26.490Z,67
2023-02-08T00:34:33.513Z,67
2023-02-08T00:35:40.646Z,67
2023-02-08T00:36:47.243Z,66
2023-02-08T00:37:54.408Z,66
2023-02-08T00:39:01.491Z,66
2023-02-08T00:40:08.599Z,66
2023-02-08T00:41:15.657Z,66
2023-02-08T00:42:22.273Z,66
2023-02-08T00:43:29.390Z,66
2023-02-08T00:44:36.487Z,66
2023-02-08T00:45:43.005Z,66
2023-02-08T00:46:50.233Z,66
2023-02-08T00:47:57.329Z,66
2023-02-08T00:49:04.337Z,66
2023-02-08T00:50:11.497Z,66
2023-02-08T00:51:18.584Z,66
2023-02-08T00:52:25.188Z,66
2023-02-08T00:53:32.327Z,66
2023-02-08T00:54:39.412Z,65
2023-02-08T00:55:46.507Z,65
2023-02-08T00:56:53.596Z,65
2023-02-08T00:58:00.225Z,65
2023-02-08T01:00:16.297Z,66
2023-02-08T01:01:21.503Z,66
2023-02-08T01:02:28.649Z,66
2023-02-08T01:03:35.178Z,66
2023-02-08T01:04:42.283Z,66
2023-02-08T01:05:49.406Z,66
2023-02-08T01:06:56.545Z,66
2023-02-08T01:09:10.217Z,65
2023-02-08T01:10:17.298Z,65
2023-02-08T01:11:24.369Z,65
2023-02-08T01:12:31.589Z,65
2023-02-08T01:13:38.636Z,65
2023-02-08T01:14:45.155Z,65
2023-02-08T01:15:52.303Z,65
2023-02-08T01:16:59.401Z,65
2023-02-08T01:18:06.501Z,65
2023-02-08T01:19:13.589Z,65
2023-02-08T01:20:20.219Z,65
2023-02-08T01:21:27.339Z,65
2023-02-08T01:22:34.445Z,65
2023-02-08T01:23:41.565Z,65
2023-02-08T01:24:48.611Z,65
2023-02-08T01:25:55.191Z,65
2023-02-08T01:27:02.305Z,65
2023-02-08T01:28:09.470Z,65
2023-02-08T01:29:16.547Z,65
2023-02-08T01:30:23.645Z,65
2023-02-08T01:31:30.295Z,65
2023-02-08T01:32:37.372Z,65
2023-02-08T01:33:44.414Z,65
2023-02-08T01:34:51.530Z,65
2023-02-08T01:35:58.647Z,65
2023-02-08T01:37:05.209Z,65
2023-02-08T01:38:12.315Z,65
2023-02-08T01:39:19.435Z,65
2023-02-08T01:40:26.684Z,65
2023-02-08T01:41:33.652Z,65
2023-02-08T01:42:40.287Z,65
2023-02-08T01:43:47.291Z,65
2023-02-08T01:44:54.451Z,65
2023-02-08T01:46:01.618Z,65
2023-02-08T01:47:08.664Z,65
2023-02-08T01:48:15.299Z,65
2023-02-08T01:49:22.349Z,65
2023-02-08T01:50:29.472Z,65
2023-02-08T01:51:36.515Z,65
2023-02-08T01:52:43.705Z,65
2023-02-08T01:53:50.249Z,65
2023-02-08T01:54:57.337Z,65
2023-02-08T01:56:04.456Z,65
2023-02-08T01:57:11.591Z,64
2023-02-08T01:58:18.147Z,64
2023-02-08T01:59:25.213Z,64
2023-02-08T02:00:32.327Z,64
2023-02-08T02:01:39.475Z,64
2023-02-08T02:02:46.627Z,64
2023-02-08T02:03:53.138Z,64
2023-02-08T02:05:00.299Z,63
2023-02-08T02:06:07.316Z,63
2023-02-08T02:07:14.427Z,63
2023-02-08T02:08:21.120Z,63
2023-02-08T02:08:21.539Z,63
2023-02-08T02:09:28.690Z,63
2023-02-08T02:10:35.269Z,63
2023-02-08T02:12:49.539Z,63
2023-02-08T02:13:56.616Z,62
2023-02-08T02:15:03.685Z,62
2023-02-08T02:16:10.286Z,62
2023-02-08T02:17:17.373Z,62
2023-02-08T02:18:24.483Z,62
2023-02-08T02:19:31.612Z,62
2023-02-08T02:20:39.093Z,61
2023-02-08T02:21:45.258Z,61
2023-02-08T02:22:52.513Z,61
2023-02-08T02:23:59.514Z,61
2023-02-08T02:25:06.637Z,61
2023-02-08T02:26:13.691Z,61
2023-02-08T02:28:27.536Z,61
2023-02-08T02:29:34.465Z,61
2023-02-08T02:30:41.978Z,61
2023-02-08T02:31:48.337Z,61
2023-02-08T02:32:55.343Z,61
2023-02-08T02:34:02.374Z,61
2023-02-08T02:35:09.532Z,61
2023-02-08T02:36:16.608Z,61
2023-02-08T02:37:23.200Z,61
2023-02-08T02:38:30.688Z,61
2023-02-08T02:39:37.411Z,61
2023-02-08T02:40:44.494Z,61
2023-02-08T02:41:51.650Z,61
2023-02-08T02:42:58.283Z,61
2023-02-08T02:44:05.296Z,61
2023-02-08T02:45:12.410Z,60
2023-02-08T02:46:19.563Z,60
2023-02-08T02:47:26.672Z,60
2023-02-08T02:48:33.171Z,60
2023-02-08T02:49:40.336Z,60
2023-02-08T02:50:47.434Z,60
2023-02-08T02:53:01.746Z,60
2023-02-08T02:57:29.568Z,60
2023-02-08T02:58:36.671Z,60
2023-02-08T02:59:43.204Z,60
2023-02-08T03:00:50.368Z,60
2023-02-08T03:01:57.503Z,60
2023-02-08T03:04:11.754Z,60
2023-02-08T03:06:25.339Z,60
2023-02-08T03:07:32.478Z,60
2023-02-08T03:10:53.210Z,60
2023-02-08T03:12:00.371Z,60
2023-02-08T03:13:07.500Z,60
2023-02-08T03:14:14.538Z,60
2023-02-08T03:16:28.421Z,59
2023-02-08T03:17:35.361Z,60
2023-02-08T03:18:42.430Z,60
2023-02-08T03:19:49.606Z,60
2023-02-08T03:20:56.685Z,60
2023-02-08T03:22:03.277Z,60
2023-02-08T03:23:10.435Z,60
2023-02-08T03:24:17.511Z,60
2023-02-08T03:27:38.310Z,60
2023-02-08T03:29:52.448Z,60
2023-02-08T03:30:59.076Z,60
2023-02-08T03:32:06.734Z,60
2023-02-08T03:33:13.316Z,61
2023-02-08T03:34:20.402Z,61
2023-02-08T03:35:27.525Z,61
2023-02-08T03:36:34.595Z,61
2023-02-08T03:37:41.748Z,61
2023-02-08T03:39:55.416Z,60
2023-02-08T03:45:30.480Z,60
2023-02-08T03:46:37.507Z,59
2023-02-08T03:47:44.651Z,59
2023-02-08T03:48:51.190Z,59
2023-02-08T03:49:58.297Z,59
2023-02-08T03:51:05.436Z,59
2023-02-08T03:52:12.527Z,59
2023-02-08T03:53:19.647Z,59
2023-02-08T03:54:26.205Z,58
2023-02-08T03:56:40.417Z,58
2023-02-08T03:57:47.552Z,58
2023-02-08T03:58:54.583Z,58
2023-02-08T04:00:01.252Z,58
2023-02-08T04:01:08.367Z,58
2023-02-08T04:02:15.440Z,58
2023-02-08T04:03:22.582Z,58
2023-02-08T04:04:29.589Z,58
2023-02-08T04:05:36.252Z,58
2023-02-08T04:06:43.329Z,58
2023-02-08T04:07:50.553Z,59
2023-02-08T04:08:57.528Z,59
2023-02-08T04:10:04.650Z,59
2023-02-08T04:11:11.247Z,59
2023-02-08T04:12:17.807Z,59
2023-02-08T04:13:25.462Z,58
2023-02-08T04:14:32.552Z,58
2023-02-08T04:15:39.692Z,58
2023-02-08T04:16:46.227Z,58
2023-02-08T04:17:53.390Z,58
2023-02-08T04:20:07.538Z,57
2023-02-08T04:21:14.636Z,57
2023-02-08T04:22:21.288Z,57
2023-02-08T04:23:28.350Z,57
2023-02-08T04:24:35.498Z,57
2023-02-08T04:25:42.540Z,57
2023-02-08T04:26:49.747Z,57
2023-02-08T04:27:56.343Z,57
2023-02-08T04:29:03.341Z,57
2023-02-08T04:30:10.456Z,57
2023-02-08T04:31:17.668Z,57
2023-02-08T04:32:24.647Z,57
2023-02-08T04:33:31.256Z,57
2023-02-08T04:34:38.362Z,57
2023-02-08T04:35:45.469Z,57
2023-02-08T04:36:52.593Z,57
2023-02-08T04:37:59.735Z,57
2023-02-08T04:39:06.272Z,57
2023-02-08T04:40:16.364Z,57
2023-02-08T04:41:20.468Z,57
2023-02-08T04:42:27.595Z,57
2023-02-08T04:43:34.696Z,57
2023-02-08T04:44:41.281Z,57
2023-02-08T04:45:48.380Z,57
2023-02-08T04:46:55.472Z,57
2023-02-08T04:48:02.648Z,57
2023-02-08T04:49:09.721Z,57
2023-02-08T04:50:16.374Z,57
2023-02-08T04:51:23.347Z,57
2023-02-08T04:52:30.475Z,57
2023-02-08T04:53:37.096Z,57
2023-02-08T04:54:44.684Z,57
2023-02-08T04:55:51.321Z,58
2023-02-08T04:56:58.401Z,58
2023-02-08T04:58:05.566Z,58
2023-02-08T04:59:12.604Z,58
2023-02-08T05:00:19.181Z,58
2023-02-08T05:01:26.370Z,58
2023-02-08T05:02:33.376Z,58
2023-02-08T05:03:40.615Z,58
2023-02-08T05:04:47.718Z,58
2023-02-08T05:05:54.184Z,58
2023-02-08T05:07:01.341Z,58
2023-02-08T05:08:08.475Z,58
2023-02-08T05:09:15.541Z,58
2023-02-08T05:10:22.633Z,58
2023-02-08T05:11:29.208Z,58
2023-02-08T05:12:36.312Z,58
2023-02-08T05:13:43.417Z,58
2023-02-08T05:14:50.632Z,58
2023-02-08T05:15:57.681Z,58
2023-02-08T05:17:04.199Z,58
2023-02-08T05:18:11.343Z,58
2023-02-08T05:19:18.445Z,58
2023-02-08T05:20:25.498Z,58
2023-02-08T05:21:32.613Z,58
2023-02-08T05:24:53.501Z,58
2023-02-08T05:26:00.538Z,58
2023-02-08T05:27:07.651Z,58
2023-02-08T05:28:14.260Z,58
2023-02-08T05:29:21.330Z,58
2023-02-08T05:30:28.426Z,58
2023-02-08T05:31:35.668Z,58
2023-02-08T05:32:42.691Z,58
2023-02-08T05:33:49.255Z,58
2023-02-08T05:36:05.238Z,58
2023-02-08T05:37:10.546Z,58
2023-02-08T05:38:17.668Z,58
2023-02-08T05:39:24.240Z,58
2023-02-08T05:40:31.310Z,57
2023-02-08T05:41:38.453Z,58
2023-02-08T05:42:45.596Z,57
2023-02-08T05:43:52.647Z,58
2023-02-08T05:44:59.258Z,58
2023-02-08T05:46:06.365Z,58
2023-02-08T05:47:13.414Z,58
2023-02-08T05:48:20.589Z,58
2023-02-08T05:49:27.673Z,58
2023-02-08T05:50:34.238Z,58
2023-02-08T05:51:41.511Z,58
2023-02-08T05:52:48.498Z,58
2023-02-08T05:53:55.571Z,58
2023-02-08T05:55:02.699Z,58
2023-02-08T05:56:09.243Z,58
2023-02-08T05:57:16.360Z,58
2023-02-08T05:58:23.463Z,58
2023-02-08T05:59:30.587Z,58
2023-02-08T06:00:37.700Z,58
2023-02-08T06:01:44.225Z,57
2023-02-08T06:02:51.569Z,57
2023-02-08T06:03:58.511Z,57
2023-02-08T06:05:05.578Z,58
2023-02-08T06:06:12.680Z,58
2023-02-08T06:07:19.281Z,58
2023-02-08T06:08:26.389Z,57
2023-02-08T06:09:33.475Z,57
2023-02-08T06:10:41.005Z,57
2023-02-08T06:11:47.712Z,57
2023-02-08T06:12:54.330Z,57
2023-02-08T06:14:01.375Z,58
2023-02-08T06:15:08.508Z,58
2023-02-08T06:16:16.742Z,57
2023-02-08T06:17:22.679Z,57
2023-02-08T06:18:29.332Z,58
2023-02-08T06:19:36.421Z,58
2023-02-08T06:20:43.504Z,57
2023-02-08T06:21:50.601Z,58
2023-02-08T06:22:57.271Z,57
2023-02-08T06:24:04.309Z,58
2023-02-08T06:25:11.416Z,58
2023-02-08T06:27:25.611Z,58
2023-02-08T06:28:32.345Z,58
2023-02-08T06:29:39.308Z,58
2023-02-08T06:30:46.443Z,58
2023-02-08T06:31:53.631Z,58
2023-02-08T06:33:00.676Z,58
2023-02-08T06:34:07.225Z,58
2023-02-08T06:35:14.275Z,58
2023-02-08T06:36:21.451Z,58
2023-02-08T06:37:28.523Z,58
2023-02-08T06:38:35.671Z,58
2023-02-08T06:39:42.245Z,58
2023-02-08T06:40:49.327Z,58
2023-02-08T06:41:56.453Z,58
2023-02-08T06:43:03.512Z,58
2023-02-08T06:44:10.632Z,58
2023-02-08T06:45:17.243Z,58
2023-02-08T06:46:24.283Z,58
2023-02-08T06:47:31.429Z,58
2023-02-08T06:48:38.587Z,59
2023-02-08T06:49:45.645Z,59
2023-02-08T06:50:52.303Z,59
2023-02-08T06:53:06.422Z,59
2023-02-08T06:54:13.530Z,59
2023-02-08T06:55:20.646Z,59
2023-02-08T06:56:27.255Z,59
2023-02-08T06:57:34.304Z,59
2023-02-08T06:58:41.510Z,59
2023-02-08T06:59:48.584Z,59
2023-02-08T07:00:55.714Z,59
2023-02-08T07:02:02.343Z,59
2023-02-08T07:03:09.365Z,59
2023-02-08T07:04:16.485Z,59
2023-02-08T07:05:23.524Z,59
2023-02-08T07:06:30.704Z,59
2023-02-08T07:07:37.281Z,59
2023-02-08T07:15:26.495Z,60
2023-02-08T07:16:33.663Z,60
2023-02-08T07:17:40.715Z,60
2023-02-08T07:18:47.395Z,60
2023-02-08T07:19:54.364Z,60
2023-02-08T07:21:01.555Z,60
2023-02-08T07:22:08.580Z,60
2023-02-08T07:23:15.665Z,60
2023-02-08T07:24:22.243Z,60
2023-02-08T07:25:29.390Z,60
2023-02-08T07:26:36.502Z,60
2023-02-08T07:27:43.596Z,60
2023-02-08T07:28:50.740Z,60
2023-02-08T07:31:04.431Z,61
2023-02-08T07:32:11.678Z,61
2023-02-08T07:33:18.650Z,61
2023-02-08T07:34:25.685Z,61
2023-02-08T07:35:32.280Z,60
2023-02-08T07:36:39.438Z,61
2023-02-08T07:37:46.520Z,61
2023-02-08T07:38:53.666Z,61
2023-02-08T07:40:00.718Z,61
2023-02-08T07:41:07.308Z,61
2023-02-08T07:42:14.406Z,61
2023-02-08T07:43:21.599Z,61
2023-02-08T07:44:28.629Z,61
2023-02-08T07:45:35.711Z,61
2023-02-08T07:46:42.369Z,62
2023-02-08T07:47:49.440Z,62
2023-02-08T07:48:56.666Z,62
2023-02-08T07:50:03.617Z,62
2023-02-08T07:51:10.729Z,62
2023-02-08T07:52:17.287Z,62
2023-02-08T07:53:24.470Z,62
2023-02-08T07:54:31.535Z,62
2023-02-08T07:55:38.669Z,63
2023-02-08T07:56:45.241Z,63
2023-02-08T07:57:52.371Z,63
2023-02-08T07:58:59.460Z,63
2023-02-08T08:00:06.553Z,63
2023-02-08T08:01:21.839Z,64
2023-02-08T08:02:20.837Z,64
2023-02-08T08:03:27.373Z,64
2023-02-08T08:04:34.430Z,64
2023-02-08T08:05:41.608Z,64
2023-02-08T08:06:48.703Z,63
2023-02-08T08:07:55.243Z,64
2023-02-08T08:09:02.363Z,64
2023-02-08T08:10:09.452Z,64
2023-02-08T08:11:16.583Z,64
2023-02-08T08:12:23.623Z,64
2023-02-08T08:13:30.584Z,64
2023-02-08T08:14:37.352Z,64
2023-02-08T08:15:44.521Z,64
2023-02-08T08:16:51.585Z,64
2023-02-08T08:17:58.706Z,64
2023-02-08T08:19:05.223Z,64
2023-02-08T08:21:19.460Z,64
2023-02-08T08:22:26.624Z,65
2023-02-08T08:23:33.725Z,65
2023-02-08T08:24:40.278Z,65
2023-02-08T08:25:47.467Z,65
2023-02-08T08:26:54.461Z,65
2023-02-08T08:28:01.645Z,65
2023-02-08T08:29:08.693Z,65
2023-02-08T08:30:16.397Z,65
2023-02-08T08:31:22.535Z,65
2023-02-08T08:32:29.480Z,65
2023-02-08T08:34:43.746Z,65
2023-02-08T08:35:50.297Z,65
2023-02-08T08:36:57.425Z,65
2023-02-08T08:38:04.460Z,65
2023-02-08T08:39:11.616Z,65
2023-02-08T08:40:18.724Z,65
2023-02-08T08:41:25.303Z,65
2023-02-08T08:42:32.382Z,65
2023-02-08T08:43:39.584Z,65
2023-02-08T08:44:46.622Z,65
2023-02-08T08:45:53.695Z,65
2023-02-08T08:47:00.313Z,65
2023-02-08T08:48:07.448Z,65
2023-02-08T08:49:14.514Z,65
2023-02-08T08:50:21.627Z,65
2023-02-08T08:51:28.726Z,66
2023-02-08T08:52:35.319Z,66
2023-02-08T08:53:42.442Z,66
2023-02-08T08:54:49.556Z,66
2023-02-08T08:55:56.658Z,65
2023-02-08T08:57:03.721Z,66
2023-02-08T08:58:10.346Z,66
2023-02-08T08:59:17.435Z,66
2023-02-08T09:00:24.533Z,66
2023-02-08T09:01:33.602Z,66
2023-02-08T09:02:38.271Z,66
2023-02-08T09:03:45.326Z,66
2023-02-08T09:04:52.405Z,66
2023-02-08T09:05:59.510Z,66
2023-02-08T09:07:06.620Z,66
2023-02-08T09:08:13.248Z,66
2023-02-08T09:09:20.310Z,66
2023-02-08T09:10:27.454Z,66
2023-02-08T09:11:34.536Z,66
2023-02-08T09:12:41.724Z,66
2023-02-08T09:13:48.276Z,66
2023-02-08T09:14:55.293Z,66
2023-02-08T09:16:02.466Z,66
2023-02-08T09:17:09.543Z,66
2023-02-08T09:18:16.655Z,67
2023-02-08T09:19:23.232Z,67
2023-02-08T09:20:30.339Z,67
2023-02-08T09:21:37.474Z,67
2023-02-08T09:22:44.562Z,67
2023-02-08T09:23:51.733Z,67
2023-02-08T09:24:58.233Z,67
2023-02-08T09:26:05.301Z,67
2023-02-08T09:27:12.456Z,67
2023-02-08T09:28:19.608Z,67
2023-02-08T09:29:26.694Z,67
2023-02-08T09:30:33.285Z,67
2023-02-08T09:31:40.461Z,67
2023-02-08T09:32:47.461Z,67
2023-02-08T09:33:54.606Z,67
2023-02-08T09:35:01.694Z,67
2023-02-08T09:36:08.253Z,67
2023-02-08T09:38:22.509Z,67
2023-02-08T09:39:29.563Z,68
2023-02-08T09:40:36.670Z,68
2023-02-08T09:41:43.282Z,68
2023-02-08T09:42:50.348Z,68
2023-02-08T09:43:57.466Z,68
2023-02-08T09:45:04.599Z,68
2023-02-08T09:46:11.699Z,68
2023-02-08T09:47:18.319Z,68
2023-02-08T09:49:32.499Z,68
2023-02-08T09:50:39.716Z,68
2023-02-08T09:51:46.711Z,68
2023-02-08T09:52:53.269Z,68
2023-02-08T09:54:00.385Z,68
2023-02-08T09:55:07.519Z,69
2023-02-08T09:56:14.603Z,69
2023-02-08T09:57:21.734Z,69
2023-02-08T09:58:28.355Z,69
2023-02-08T09:59:35.374Z,69
2023-02-08T10:00:42.935Z,70
2023-02-08T10:01:49.775Z,70
2023-02-08T10:02:56.767Z,70
2023-02-08T10:04:03.276Z,70
2023-02-08T10:05:10.383Z,70
2023-02-08T10:06:17.549Z,70
2023-02-08T10:07:24.576Z,70
2023-02-08T10:08:35.170Z,70
2023-02-08T10:09:38.341Z,70
2023-02-08T10:10:45.381Z,70
2023-02-08T10:11:52.499Z,70
2023-02-08T10:12:59.632Z,70
2023-02-08T10:14:06.720Z,70
2023-02-08T10:15:13.312Z,70
2023-02-08T10:16:20.477Z,70
2023-02-08T10:17:27.545Z,70
2023-02-08T10:18:34.676Z,70
2023-02-08T10:19:41.247Z,70
2023-02-08T10:20:48.322Z,70
2023-02-08T10:21:55.383Z,70
2023-02-08T10:23:02.509Z,70
2023-02-08T10:24:09.656Z,70
2023-02-08T10:25:16.229Z,70
2023-02-08T10:26:23.319Z,70
2023-02-08T10:27:30.587Z,70
2023-02-08T10:28:37.584Z,70
2023-02-08T10:29:44.617Z,70
2023-02-08T10:30:51.213Z,70
2023-02-08T10:31:58.371Z,70
2023-02-08T10:33:05.409Z,70
2023-02-08T10:34:13.130Z,70
2023-02-08T10:35:19.669Z,70
2023-02-08T10:36:26.228Z,70
2023-02-08T10:37:33.344Z,70
2023-02-08T10:38:46.806Z,70
2023-02-08T10:39:47.568Z,70
2023-02-08T10:42:01.252Z,70
2023-02-08T10:43:08.389Z,70
2023-02-08T10:44:15.466Z,70
2023-02-08T10:45:24.689Z,69
2023-02-08T10:46:29.706Z,69
2023-02-08T10:47:36.276Z,69
2023-02-08T10:48:43.312Z,69
2023-02-08T10:49:50.510Z,69
2023-02-08T10:50:57.584Z,69
2023-02-08T10:52:04.757Z,69
2023-02-08T10:53:11.287Z,69
2023-02-08T10:54:18.396Z,69
2023-02-08T10:55:25.486Z,69
2023-02-08T10:56:32.538Z,69
2023-02-08T10:57:39.678Z,69
2023-02-08T10:58:46.844Z,69
2023-02-08T10:59:53.383Z,69
2023-02-08T11:01:00.480Z,69
2023-02-08T11:02:07.582Z,69
2023-02-08T11:03:14.673Z,69
2023-02-08T11:04:21.369Z,69
2023-02-08T11:05:28.388Z,69
2023-02-08T11:05:28.415Z,69
2023-02-08T11:06:35.458Z,69
2023-02-08T11:07:42.567Z,69
2023-02-08T11:08:49.783Z,69
2023-02-08T11:09:56.310Z,69
2023-02-08T11:11:03.345Z,69
2023-02-08T11:12:10.507Z,69
2023-02-08T11:13:17.582Z,69
2023-02-08T11:14:27.139Z,69
2023-02-08T11:15:31.338Z,69
2023-02-08T11:17:45.521Z,69
2023-02-08T11:18:52.607Z,69
2023-02-08T11:19:59.760Z,69
2023-02-08T11:21:06.320Z,69
2023-02-08T11:22:13.386Z,69
2023-02-08T11:23:20.520Z,69
2023-02-08T11:24:27.635Z,69
2023-02-08T11:25:40.216Z,69
2023-02-08T11:26:41.300Z,69
2023-02-08T11:27:48.489Z,69
2023-02-08T11:28:55.548Z,69
2023-02-08T11:30:02.601Z,69
2023-02-08T11:31:09.231Z,69
2023-02-08T11:32:16.321Z,69
2023-02-08T11:33:23.439Z,69
2023-02-08T11:34:30.513Z,70
2023-02-08T11:35:37.668Z,70
2023-02-08T11:36:44.265Z,70
2023-02-08T11:37:51.322Z,70
2023-02-08T11:38:58.483Z,70
2023-02-08T11:40:05.517Z,70
2023-02-08T11:41:12.628Z,70
2023-02-08T11:42:19.198Z,70
2023-02-08T11:43:26.394Z,70
2023-02-08T11:45:40.684Z,70
2023-02-08T11:46:54.313Z,70
2023-02-08T11:47:54.203Z,70
2023-02-08T11:49:01.384Z,70
2023-02-08T11:50:08.481Z,70
2023-02-08T11:51:15.558Z,70
2023-02-08T11:52:22.650Z,70
2023-02-08T11:53:29.288Z,70
2023-02-08T11:54:36.338Z,70
2023-02-08T11:55:43.721Z,70
2023-02-08T11:56:50.583Z,70
2023-02-08T11:57:57.687Z,70
2023-02-08T11:59:04.444Z,70
2023-02-08T12:00:11.335Z,70
2023-02-08T12:01:18.440Z,70
2023-02-08T12:02:25.631Z,70
2023-02-08T12:03:32.787Z,70
2023-02-08T12:04:39.265Z,70
2023-02-08T12:05:46.451Z,70
2023-02-08T12:06:53.421Z,70
2023-02-08T12:08:00.555Z,70
2023-02-08T12:09:07.713Z,70
2023-02-08T12:10:14.855Z,70
2023-02-08T12:11:21.383Z,70
2023-02-08T12:12:28.468Z,70
2023-02-08T12:13:35.614Z,70
2023-02-08T12:14:42.718Z,70
2023-02-08T12:15:58.283Z,71
2023-02-08T12:16:56.391Z,71
2023-02-08T12:18:03.480Z,71
2023-02-08T12:19:10.629Z,71
2023-02-08T12:20:17.739Z,71
2023-02-08T12:21:24.301Z,71
2023-02-08T12:22:31.387Z,71
2023-02-08T12:23:38.558Z,71
2023-02-08T12:24:45.568Z,71
2023-02-08T12:25:52.690Z,71
2023-02-08T12:26:59.308Z,71
2023-02-08T12:28:06.475Z,71
2023-02-08T12:29:13.473Z,71
2023-02-08T12:30:20.579Z,71
2023-02-08T12:31:28.064Z,71
2023-02-08T12:32:34.293Z,71
2023-02-08T12:33:41.502Z,71
2023-02-08T12:34:48.537Z,71
2023-02-08T12:36:04.125Z,71
2023-02-08T12:37:02.686Z,71
2023-02-08T12:38:09.325Z,71
2023-02-08T12:39:20.235Z,71
2023-02-08T12:40:23.494Z,71
2023-02-08T12:41:30.602Z,71
2023-02-08T12:42:37.707Z,71
2023-02-08T12:43:44.338Z,71
2023-02-08T12:45:58.559Z,71
2023-02-08T12:47:05.614Z,71
2023-02-08T12:49:19.323Z,72
2023-02-08T12:50:26.420Z,72
2023-02-08T12:51:33.489Z,72
2023-02-08T12:52:40.597Z,72
2023-02-08T12:53:47.293Z,72
2023-02-08T12:54:54.306Z,72
2023-02-08T12:56:01.444Z,72
2023-02-08T12:57:08.558Z,72
2023-02-08T12:58:15.623Z,72
2023-02-08T12:59:22.220Z,72
2023-02-08T13:00:29.331Z,72
2023-02-08T13:01:36.477Z,72
2023-02-08T13:02:43.559Z,72
2023-02-08T13:03:50.656Z,72
2023-02-08T13:04:57.243Z,72
2023-02-08T13:06:04.660Z,72
2023-02-08T13:07:11.505Z,72
2023-02-08T13:08:18.565Z,72
2023-02-08T13:09:25.700Z,71
2023-02-08T13:10:32.213Z,71
2023-02-08T13:11:39.403Z,71
2023-02-08T13:12:46.457Z,71
2023-02-08T13:13:53.593Z,71
2023-02-08T13:15:02.856Z,71
2023-02-08T13:16:07.259Z,71
2023-02-08T13:17:14.334Z,71
2023-02-08T13:18:21.481Z,71
2023-02-08T13:19:28.660Z,71
2023-02-08T13:20:35.656Z,71
2023-02-08T13:21:42.783Z,71
2023-02-08T13:22:49.356Z,71
2023-02-08T13:23:56.467Z,71
2023-02-08T13:25:08.503Z,71
2023-02-08T13:26:10.668Z,71
2023-02-08T13:27:17.274Z,71
2023-02-08T13:28:24.487Z,71
2023-02-08T13:29:31.543Z,71
2023-02-08T13:30:40.073Z,71
2023-02-08T13:31:45.725Z,71
2023-02-08T13:32:52.271Z,71
2023-02-08T13:34:01.897Z,71
2023-02-08T13:35:06.686Z,71
2023-02-08T13:36:13.595Z,70
2023-02-08T13:37:25.434Z,70
2023-02-08T13:38:27.280Z,70
2023-02-08T13:39:34.444Z,70
2023-02-08T13:40:41.982Z,70
2023-02-08T13:41:48.604Z,70
2023-02-08T13:42:55.667Z,70
2023-02-08T13:44:02.278Z,70
2023-02-08T13:45:09.400Z,70
2023-02-08T13:46:16.561Z,70
2023-02-08T13:47:23.559Z,69
2023-02-08T13:48:30.849Z,69
2023-02-08T13:49:37.283Z,69
2023-02-08T13:50:44.739Z,69
2023-02-08T13:52:58.603Z,69
2023-02-08T13:54:08.323Z,69
2023-02-08T13:55:12.268Z,69
2023-02-08T13:56:19.439Z,69
2023-02-08T13:57:26.495Z,69
2023-02-08T13:58:33.575Z,69
2023-02-08T13:59:40.208Z,69
2023-02-08T14:00:47.334Z,69
2023-02-08T14:01:54.443Z,69
2023-02-08T14:03:01.548Z,69
2023-02-08T14:04:08.688Z,69
2023-02-08T14:05:15.189Z,69
2023-02-08T14:06:22.296Z,69
2023-02-08T14:07:29.432Z,69
2023-02-08T14:08:36.569Z,69
2023-02-08T14:09:43.633Z,69
2023-02-08T14:10:50.239Z,69
2023-02-08T14:11:57.319Z,69
2023-02-08T14:14:11.570Z,70
2023-02-08T14:15:18.678Z,70
2023-02-08T14:16:25.278Z,70
2023-02-08T14:17:32.299Z,71
2023-02-08T14:18:39.423Z,71
2023-02-08T14:19:46.561Z,71
2023-02-08T14:20:53.652Z,72
2023-02-08T14:22:00.262Z,73
2023-02-08T14:23:07.378Z,73
2023-02-08T14:24:14.523Z,74
2023-02-08T14:25:21.534Z,74
2023-02-08T14:26:28.694Z,74
2023-02-08T14:27:35.224Z,75
2023-02-08T14:28:42.289Z,75
2023-02-08T14:29:49.445Z,75
2023-02-08T14:30:56.561Z,75
2023-02-08T14:32:03.680Z,76
2023-02-08T14:33:10.229Z,76
2023-02-08T14:34:17.372Z,76
2023-02-08T14:35:24.457Z,76
2023-02-08T14:36:31.540Z,77
2023-02-08T14:37:38.667Z,77
2023-02-08T14:38:45.297Z,77
2023-02-08T14:39:52.371Z,77
2023-02-08T14:40:59.447Z,77
2023-02-08T14:42:06.557Z,77
2023-02-08T14:43:13.656Z,78
2023-02-08T14:44:20.302Z,78
2023-02-08T14:45:27.414Z,78
2023-02-08T14:46:34.483Z,78
2023-02-08T14:47:41.606Z,79
2023-02-08T14:48:48.734Z,79
2023-02-08T14:49:55.223Z,79
2023-02-08T14:51:02.383Z,79
2023-02-08T14:52:09.470Z,79
2023-02-08T14:53:16.612Z,79
2023-02-08T14:54:23.734Z,79
2023-02-08T14:56:37.391Z,80
2023-02-08T14:57:44.469Z,80
2023-02-08T14:58:51.772Z,80
2023-02-08T14:59:58.199Z,80
2023-02-08T15:01:05.323Z,80
2023-02-08T15:02:12.406Z,80
2023-02-08T15:03:19.455Z,80
2023-02-08T15:04:26.658Z,80
2023-02-08T15:05:33.695Z,80
2023-02-08T15:06:40.312Z,80
2023-02-08T15:07:47.349Z,80
2023-02-08T15:08:54.469Z,80
2023-02-08T15:10:01.590Z,80
2023-02-08T15:11:08.206Z,80
2023-02-08T15:12:15.265Z,81
2023-02-08T15:13:22.414Z,81
2023-02-08T15:14:29.727Z,81
2023-02-08T15:15:36.673Z,81
2023-02-08T15:16:43.245Z,81
2023-02-08T15:17:50.352Z,81
2023-02-08T15:18:57.394Z,81
2023-02-08T15:20:04.515Z,81
2023-02-08T15:21:11.662Z,81
2023-02-08T15:22:18.249Z,81
2023-02-08T15:23:25.484Z,82
2023-02-08T15:24:32.490Z,80
2023-02-08T15:25:39.554Z,77
2023-02-08T15:26:49.700Z,76
2023-02-08T15:27:53.245Z,75
2023-02-08T15:29:00.349Z,76
2023-02-08T15:30:07.425Z,76
2023-02-08T15:31:14.774Z,77
2023-02-08T15:32:21.670Z,78
2023-02-08T15:33:28.201Z,79
2023-02-08T15:34:35.340Z,79
2023-02-08T15:35:42.427Z,80
2023-02-08T15:36:49.879Z,81
2023-02-08T15:37:56.705Z,81
2023-02-08T15:39:03.293Z,82
2023-02-08T15:40:10.361Z,82
2023-02-08T15:42:24.589Z,83
2023-02-08T15:43:31.695Z,83
2023-02-08T15:44:38.273Z,83
2023-02-08T15:45:45.410Z,83
2023-02-08T15:47:59.716Z,84
2023-02-08T15:49:06.716Z,84
2023-02-08T15:50:13.226Z,84
2023-02-08T15:51:20.386Z,84
2023-02-08T15:52:27.452Z,84
2023-02-08T15:53:34.560Z,84
2023-02-08T15:54:41.703Z,84
2023-02-08T15:55:48.299Z,84
2023-02-08T15:56:55.353Z,84
2023-02-08T15:58:02.558Z,84
2023-02-08T16:00:16.675Z,84
2023-02-08T16:01:23.274Z,84
2023-02-08T16:02:30.430Z,84
2023-02-08T16:03:37.579Z,84
2023-02-08T16:04:44.663Z,85
2023-02-08T16:05:51.677Z,85
2023-02-08T16:06:58.298Z,85
2023-02-08T16:08:05.351Z,85
2023-02-08T16:09:12.534Z,85
2023-02-08T16:10:19.598Z,85
2023-02-08T16:11:26.703Z,85
2023-02-08T16:12:33.274Z,85
2023-02-08T16:13:40.394Z,85
2023-02-08T16:14:52.740Z,85
2023-02-08T16:16:00.820Z,85
2023-02-08T16:17:01.701Z,85
2023-02-08T16:18:08.307Z,85
2023-02-08T16:19:15.405Z,85
2023-02-08T16:20:22.524Z,85
2023-02-08T16:21:29.622Z,85
2023-02-08T16:22:36.747Z,85
2023-02-08T16:23:43.274Z,85
2023-02-08T16:24:50.469Z,85
2023-02-08T16:25:59.089Z,85
2023-02-08T16:27:04.575Z,85
2023-02-08T16:28:11.804Z,85
2023-02-08T16:29:18.417Z,85
2023-02-08T16:30:25.483Z,85
2023-02-08T16:31:32.603Z,85
2023-02-08T16:32:39.792Z,85
2023-02-08T16:33:46.731Z,86
2023-02-08T16:34:53.372Z,86
2023-02-08T16:36:00.457Z,86
2023-02-08T16:37:08.814Z,86
2023-02-08T16:38:14.628Z,86
2023-02-08T16:39:21.291Z,86
2023-02-08T16:40:28.306Z,86
2023-02-08T16:41:35.460Z,86
2023-02-08T16:42:42.529Z,86
2023-02-08T16:43:49.670Z,86
2023-02-08T16:44:56.241Z,86
2023-02-08T16:46:03.402Z,86
2023-02-08T16:47:10.435Z,86
2023-02-08T16:48:18.853Z,86
2023-02-08T16:49:24.708Z,87
2023-02-08T16:50:31.734Z,87